createdAt,value
2019-04-20T08:45:34.632Z,98193.84
2019-04-20T08:48:11.110Z,98197.06
2019-04-20T08:50:47.060Z,98205.05
2019-04-20T08:53:28.124Z,98206.62
2019-04-20T08:55:50.113Z,98214.05
2019-04-20T08:58:15.918Z,98213.91
2019-04-20T09:00:56.511Z,98214.17
2019-04-20T09:03:31.722Z,98214.72
2019-04-20T09:06:19.319Z,98215.95
2019-04-20T09:08:51.451Z,98200.56
2019-04-20T09:11:44.136Z,98197.16
2019-04-20T09:14:00.180Z,98214.69
2019-04-20T09:16:45.632Z,98208.22
2019-04-20T09:19:13.304Z,98203.21
2019-04-20T09:21:55.166Z,98197.30
2019-04-20T09:24:51.267Z,98191.38
2019-04-20T09:27:14.225Z,98191.95
2019-04-20T09:29:54.861Z,98199.80
2019-04-20T09:32:34.324Z,98204.12
2019-04-20T09:35:13.351Z,98200.23
2019-04-20T09:37:53.398Z,98204.28
2019-04-20T09:40:35.536Z,98205.03
2019-04-20T09:42:55.816Z,98212.44
2019-04-20T09:45:56.425Z,98198.00
2019-04-20T09:48:38.935Z,98208.61
2019-04-20T09:51:24.555Z,98208.38
2019-04-20T09:53:50.590Z,98212.81
2019-04-20T09:56:32.446Z,98221.38
2019-04-20T09:59:18.909Z,98212.09
2019-04-20T10:01:40.223Z,98205.43
2019-04-20T10:04:07.593Z,98220.00
2019-04-20T10:06:43.557Z,98213.56
2019-04-20T10:09:21.313Z,98211.58
2019-04-20T10:11:55.435Z,98218.53
2019-04-20T10:14:30.904Z,98218.53
2019-04-20T10:17:05.713Z,98213.75
2019-04-20T10:19:43.210Z,98216.20
2019-04-20T10:22:18.442Z,98216.18
2019-04-20T10:24:57.159Z,98216.18
2019-04-20T10:27:32.771Z,98221.98
2019-04-20T10:30:08.213Z,98221.98
2019-04-20T10:32:45.680Z,98212.91
2019-04-20T10:35:19.772Z,98230.99
2019-04-20T10:37:59.743Z,98221.49
2019-04-20T10:40:48.690Z,98221.08
2019-04-20T10:43:10.278Z,98219.48
2019-04-20T10:45:46.680Z,98224.52
2019-04-20T10:48:23.513Z,98223.71
2019-04-20T10:51:05.144Z,98223.71
2019-04-20T10:53:40.412Z,98227.41
2019-04-20T10:56:15.835Z,98220.50
2019-04-20T10:58:50.166Z,98224.50
2019-04-20T11:01:25.373Z,98225.81
2019-04-20T11:04:00.722Z,98233.42
2019-04-20T11:06:34.961Z,98236.94
2019-04-20T11:09:10.971Z,98232.80
2019-04-20T11:11:46.140Z,98242.66
2019-04-20T11:14:27.550Z,98241.39
2019-04-20T11:16:58.435Z,98244.28
2019-04-20T11:19:33.621Z,98254.67
2019-04-20T11:22:08.427Z,98246.84
2019-04-20T11:24:43.965Z,98251.55
2019-04-20T11:27:20.298Z,98248.73
2019-04-20T11:29:55.990Z,98256.05
2019-04-20T11:32:30.402Z,98255.10
2019-04-20T11:35:09.050Z,98245.41
2019-04-20T11:37:40.413Z,98255.05
2019-04-20T11:40:15.229Z,98250.33
2019-04-20T11:42:50.067Z,98249.42
2019-04-20T11:45:28.805Z,98257.97
2019-04-20T11:48:03.748Z,98253.24
2019-04-20T11:50:39.866Z,98255.41
2019-04-20T11:53:15.426Z,98245.58
2019-04-20T11:55:50.061Z,98256.58
2019-04-20T11:58:27.772Z,98256.44
2019-04-20T12:01:14.216Z,98246.28
2019-04-20T12:03:56.419Z,98253.05
2019-04-20T12:06:23.091Z,98258.64
2019-04-20T12:08:58.892Z,98258.13
2019-04-20T12:11:52.808Z,98257.42
2019-04-20T12:14:10.392Z,98257.63
2019-04-20T12:16:47.812Z,98262.30
2019-04-20T12:19:24.913Z,98261.91
2019-04-20T12:22:00.000Z,98261.13
2019-04-20T12:24:33.857Z,98252.30
2019-04-20T12:27:10.120Z,98250.88
2019-04-20T12:29:44.132Z,98250.52
2019-04-20T12:32:19.649Z,98252.97
2019-04-20T12:34:54.242Z,98257.70
2019-04-20T12:37:29.257Z,98254.75
2019-04-20T12:40:05.007Z,98246.16
2019-04-20T12:42:41.225Z,98232.97
2019-04-20T12:45:15.754Z,98238.89
2019-04-20T12:47:51.525Z,98242.37
2019-04-20T12:50:27.670Z,98244.05
2019-04-20T12:53:02.299Z,98242.31
2019-04-20T12:55:36.806Z,98241.60
2019-04-20T12:58:12.512Z,98246.91
2019-04-20T13:00:49.878Z,98253.02
2019-04-20T13:03:25.498Z,98243.22
2019-04-20T13:06:01.837Z,98235.97
2019-04-20T13:08:39.137Z,98243.47
2019-04-20T13:11:22.551Z,98241.88
2019-04-20T13:14:42.301Z,98246.55
2019-04-20T13:17:16.764Z,98240.14
2019-04-20T13:19:51.279Z,98242.92
2019-04-20T13:22:25.956Z,98246.80
2019-04-20T13:25:01.030Z,98247.68
2019-04-20T13:27:36.653Z,98255.09
2019-04-20T13:30:11.552Z,98255.33
2019-04-20T13:32:45.713Z,98260.00
2019-04-20T13:35:20.543Z,98253.78
2019-04-20T13:37:56.198Z,98251.09
2019-04-20T13:40:31.252Z,98252.91
2019-04-20T13:43:06.086Z,98247.59
2019-04-20T13:45:40.609Z,98251.36
2019-04-20T13:48:16.914Z,98244.73
2019-04-20T13:50:51.910Z,98252.91
2019-04-20T13:53:27.514Z,98248.50
2019-04-20T13:56:11.835Z,98248.59
2019-04-20T13:59:05.830Z,98255.02
2019-04-20T14:05:07.003Z,98260.00
2019-04-20T14:07:41.982Z,98269.89
2019-04-20T14:10:47.186Z,98264.15
2019-04-20T14:13:25.848Z,98264.81
2019-04-20T14:16:00.885Z,98266.51
2019-04-20T14:18:35.364Z,98265.83
2019-04-20T14:21:12.219Z,98253.92
2019-04-20T14:23:53.034Z,98261.92
2019-04-20T14:26:27.274Z,98261.92
2019-04-20T14:29:03.042Z,98269.91
2019-04-20T14:31:41.887Z,98268.62
2019-04-20T14:34:17.444Z,98267.25
2019-04-20T14:36:52.994Z,98270.14
2019-04-20T14:39:28.012Z,98267.66
2019-04-20T14:42:04.465Z,98263.47
2019-04-20T14:44:39.478Z,98267.39
2019-04-20T14:47:23.615Z,98273.17
2019-04-20T14:50:00.773Z,98266.63
2019-04-20T14:52:35.471Z,98269.16
2019-04-20T14:55:12.423Z,98270.81
2019-04-20T14:57:47.784Z,98276.95
2019-04-20T15:00:53.388Z,98272.02
2019-04-20T15:03:40.865Z,98273.39
2019-04-20T15:06:17.764Z,98275.45
2019-04-20T15:08:54.705Z,98279.71
2019-04-20T15:11:30.794Z,98279.09
2019-04-20T15:14:07.169Z,98278.33
2019-04-20T15:16:42.724Z,98274.86
2019-04-20T15:19:39.063Z,98277.80
2019-04-20T15:22:53.773Z,98271.88
2019-04-20T15:25:27.852Z,98275.51
2019-04-20T15:28:02.812Z,98277.79
2019-04-20T15:30:38.254Z,98279.84
2019-04-20T15:33:14.965Z,98276.57
2019-04-20T15:35:50.319Z,98280.78
2019-04-20T15:38:25.420Z,98279.89
2019-04-20T15:40:59.636Z,98282.09
2019-04-20T15:43:35.346Z,98278.41
2019-04-20T15:46:10.482Z,98278.02
2019-04-20T15:48:46.162Z,98278.94
2019-04-20T15:51:21.702Z,98284.78
2019-04-20T15:53:57.835Z,98279.63
2019-04-20T15:56:33.295Z,98283.36
2019-04-20T15:59:08.424Z,98277.91
2019-04-20T16:01:51.431Z,98285.59
2019-04-20T16:04:45.335Z,98276.09
2019-04-20T16:07:21.410Z,98274.81
2019-04-20T16:09:56.891Z,98276.78
2019-04-20T16:12:32.823Z,98270.94
2019-04-20T16:15:07.474Z,98278.59
2019-04-20T16:17:47.780Z,98271.44
2019-04-20T16:20:25.045Z,98273.50
2019-04-20T16:22:58.574Z,98272.46
2019-04-20T16:25:43.842Z,98276.20
2019-04-20T16:28:19.441Z,98275.28
2019-04-20T16:31:01.609Z,98274.08
2019-04-20T16:33:36.602Z,98277.91
2019-04-20T16:36:18.771Z,98277.38
2019-04-20T16:38:53.714Z,98277.98
2019-04-20T16:41:36.170Z,98282.77
2019-04-20T16:44:11.309Z,98285.58
2019-04-20T16:46:45.884Z,98286.87
2019-04-20T16:49:21.287Z,98286.96
2019-04-20T16:51:57.141Z,98290.50
2019-04-20T16:54:32.084Z,98291.87
2019-04-20T16:57:08.262Z,98295.41
2019-04-20T16:59:47.268Z,98299.95
2019-04-20T17:02:19.138Z,98295.61
2019-04-20T17:04:54.805Z,98295.20
2019-04-20T17:07:42.921Z,98300.38
2019-04-20T17:10:18.459Z,98301.30
2019-04-20T17:12:53.914Z,98303.36
2019-04-20T17:15:28.034Z,98308.74
2019-04-20T17:18:03.396Z,98302.65
2019-04-20T17:20:37.078Z,98309.61
2019-04-20T17:23:11.276Z,98310.20
2019-04-20T17:25:48.049Z,98316.76
2019-04-20T17:28:44.982Z,98314.89
2019-04-20T17:31:45.189Z,98311.84
2019-04-20T17:34:36.475Z,98314.42
2019-04-20T17:36:57.036Z,98311.33
2019-04-20T17:39:45.515Z,98316.07
2019-04-20T17:42:23.965Z,98318.78
2019-04-20T17:44:56.424Z,98316.91
2019-04-20T17:47:43.202Z,98324.31
2019-04-20T17:50:20.040Z,98330.14
2019-04-20T17:52:57.881Z,98327.81
2019-04-20T17:55:30.557Z,98337.48
2019-04-20T17:57:57.422Z,98335.66
2019-04-20T18:01:08.677Z,98330.97
2019-04-20T18:04:13.325Z,98333.09
2019-04-20T18:06:35.835Z,98336.17
2019-04-20T18:09:06.648Z,98329.75
2019-04-20T18:11:37.413Z,98328.13
2019-04-20T18:14:28.624Z,98327.29
2019-04-20T18:17:11.470Z,98320.97
2019-04-20T18:19:38.716Z,98323.44
2019-04-20T18:22:13.974Z,98328.51
2019-04-20T18:25:10.442Z,98326.11
2019-04-20T18:27:41.450Z,98331.30
2019-04-20T18:30:15.488Z,98322.19
2019-04-20T18:32:37.984Z,98333.47
2019-04-20T18:35:20.243Z,98328.39
2019-04-20T18:38:00.703Z,98326.30
2019-04-20T18:40:38.560Z,98332.03
2019-04-20T18:43:14.495Z,98326.67
2019-04-20T18:46:05.384Z,98324.33
2019-04-20T18:48:43.624Z,98329.97
2019-04-20T18:50:57.454Z,98323.55
2019-04-20T18:53:37.456Z,98321.77
2019-04-20T18:56:08.158Z,98320.70
2019-04-20T18:58:45.138Z,98316.95
2019-04-20T19:01:19.267Z,98316.80
2019-04-20T19:03:54.053Z,98312.05
2019-04-20T19:06:29.928Z,98310.60
2019-04-20T19:09:09.480Z,98307.32
2019-04-20T19:11:49.540Z,98317.69
2019-04-20T19:14:44.228Z,98315.21
2019-04-20T19:17:49.701Z,98309.98
2019-04-20T19:20:30.682Z,98302.27
2019-04-20T19:23:10.377Z,98306.24
2019-04-20T19:25:45.724Z,98307.46
2019-04-20T19:28:25.415Z,98302.30
2019-04-20T19:31:12.341Z,98299.39
2019-04-20T19:33:57.449Z,98295.02
2019-04-20T19:36:19.946Z,98292.70
2019-04-20T19:39:01.708Z,98292.57
2019-04-20T19:41:37.811Z,98296.73
2019-04-20T19:44:14.802Z,98294.17
2019-04-20T19:46:53.783Z,98295.02
2019-04-20T19:49:25.064Z,98291.60
2019-04-20T19:52:20.699Z,98293.70
2019-04-20T19:54:46.637Z,98293.48
2019-04-20T19:57:15.896Z,98294.42
2019-04-20T19:59:41.220Z,98289.13
2019-04-20T20:02:11.769Z,98285.59
2019-04-20T20:04:52.208Z,98288.78
2019-04-20T20:07:32.191Z,98283.66
2019-04-20T20:10:06.006Z,98290.95
2019-04-20T20:12:39.800Z,98285.22
2019-04-20T20:15:23.749Z,98281.84
2019-04-20T20:18:14.061Z,98280.69
2019-04-20T20:20:47.369Z,98280.91
2019-04-20T20:23:05.426Z,98278.28
2019-04-20T20:25:44.830Z,98275.87
2019-04-20T20:28:31.155Z,98281.00
2019-04-20T20:31:06.044Z,98275.99
2019-04-20T20:33:43.890Z,98272.89
2019-04-20T20:36:14.768Z,98270.23
2019-04-20T20:38:50.219Z,98270.73
2019-04-20T20:41:26.268Z,98271.95
2019-04-20T20:44:03.589Z,98272.61
2019-04-20T20:46:39.612Z,98264.85
2019-04-20T20:49:28.514Z,98265.76
2019-04-20T20:52:06.727Z,98265.20
2019-04-20T20:54:36.393Z,98268.98
2019-04-20T20:57:03.719Z,98270.97
2019-04-20T20:59:42.750Z,98266.20
2019-04-20T21:02:18.242Z,98261.95
2019-04-20T21:04:46.295Z,98263.72
2019-04-20T21:07:20.743Z,98265.79
2019-04-20T21:09:54.457Z,98263.42
2019-04-20T21:12:28.881Z,98267.83
2019-04-20T21:15:09.230Z,98267.84
2019-04-20T21:18:04.486Z,98262.80
2019-04-20T21:20:27.606Z,98260.50
2019-04-20T21:23:07.303Z,98259.45
2019-04-20T21:25:44.193Z,98260.24
2019-04-20T21:28:15.641Z,98259.16
2019-04-20T21:30:51.819Z,98245.93
2019-04-20T21:33:29.496Z,98248.91
2019-04-20T21:36:01.213Z,98245.50
2019-04-20T21:38:39.324Z,98238.22
2019-04-20T21:41:15.028Z,98238.80
2019-04-20T21:43:46.404Z,98235.39
2019-04-20T21:46:20.935Z,98236.73
2019-04-20T21:49:05.628Z,98231.77
2019-04-20T21:51:40.271Z,98229.70
2019-04-20T21:54:06.680Z,98227.14
2019-04-20T21:56:51.227Z,98228.70
2019-04-20T21:59:27.392Z,98225.63
2019-04-20T22:02:06.554Z,98225.80
2019-04-20T22:04:35.614Z,98222.80
2019-04-20T22:07:10.330Z,98220.67
2019-04-20T22:09:48.942Z,98218.29
2019-04-20T22:12:20.255Z,98220.73
2019-04-20T22:15:07.663Z,98216.67
2019-04-20T22:17:38.053Z,98218.36
2019-04-20T22:20:24.759Z,98210.83
2019-04-20T22:22:59.854Z,98213.33
2019-04-20T22:25:42.628Z,98216.54
2019-04-20T22:28:01.822Z,98202.00
2019-04-20T22:30:37.972Z,98209.41
2019-04-20T22:33:27.122Z,98210.41
2019-04-20T22:36:01.108Z,98202.13
2019-04-20T22:38:59.807Z,98202.16
2019-04-20T22:41:32.369Z,98203.94
2019-04-20T22:44:12.153Z,98197.81
2019-04-20T22:46:43.763Z,98195.73
2019-04-20T22:49:38.943Z,98195.23
2019-04-20T22:52:05.294Z,98189.84
2019-04-20T22:54:47.833Z,98184.88
2019-04-20T22:57:19.495Z,98190.10
2019-04-20T22:59:52.114Z,98183.44
2019-04-20T23:02:22.579Z,98179.51
2019-04-20T23:04:55.030Z,98175.75
2019-04-20T23:07:29.072Z,98180.81
2019-04-20T23:10:05.450Z,98181.72
2019-04-20T23:12:39.912Z,98177.79
2019-04-20T23:15:14.740Z,98180.94
2019-04-20T23:17:51.784Z,98176.31
2019-04-20T23:20:27.677Z,98179.75
2019-04-20T23:23:00.896Z,98172.72
2019-04-20T23:25:35.247Z,98169.44
2019-04-20T23:28:14.058Z,98168.86
2019-04-20T23:30:47.409Z,98169.73
2019-04-20T23:33:23.330Z,98162.89
2019-04-20T23:36:11.155Z,98169.39
2019-04-20T23:38:49.044Z,98164.33
2019-04-20T23:41:22.206Z,98159.27
2019-04-20T23:44:08.856Z,98155.27
2019-04-20T23:47:13.768Z,98154.48
2019-04-20T23:50:11.332Z,98147.68
2019-04-20T23:52:49.722Z,98148.77
2019-04-20T23:55:05.989Z,98145.83
2019-04-20T23:57:37.959Z,98136.31
